sensor_id;sensor_type;location;lat;lon;timestamp;pressure;altitude;pressure_sealevel;temperature;humidity
59531;BME280;45349;48.692;8.186;2022-10-31T00:02:20;99121.88;;;12.12;100.00
59531;BME280;45349;48.692;8.186;2022-10-31T00:04:48;99125.31;;;12.13;100.00
59531;BME280;45349;48.692;8.186;2022-10-31T00:07:15;99126.44;;;12.10;100.00
59531;BME280;45349;48.692;8.186;2022-10-31T00:09:43;99130.00;;;12.09;100.00
59531;BME280;45349;48.692;8.186;2022-10-31T00:12:09;99128.97;;;12.02;100.00
59531;BME280;45349;48.692;8.186;2022-10-31T00:14:36;99127.75;;;11.96;100.00
59531;BME280;45349;48.692;8.186;2022-10-31T00:17:02;99128.28;;;12.00;100.00
59531;BME280;45349;48.692;8.186;2022-10-31T00:19:29;99128.81;;;12.03;100.00
59531;BME280;45349;48.692;8.186;2022-10-31T00:21:57;99127.56;;;12.07;100.00
59531;BME280;45349;48.692;8.186;2022-10-31T00:24:24;99125.91;;;12.06;100.00
59531;BME280;45349;48.692;8.186;2022-10-31T00:26:50;99132.72;;;12.17;100.00
59531;BME280;45349;48.692;8.186;2022-10-31T00:29:17;99128.75;;;12.13;100.00
59531;BME280;45349;48.692;8.186;2022-10-31T00:31:43;99136.09;;;12.09;100.00
59531;BME280;45349;48.692;8.186;2022-10-31T00:34:10;99132.41;;;12.02;100.00
59531;BME280;45349;48.692;8.186;2022-10-31T00:36:36;99128.53;;;11.96;100.00
59531;BME280;45349;48.692;8.186;2022-10-31T00:39:04;99121.50;;;12.25;100.00
59531;BME280;45349;48.692;8.186;2022-10-31T00:41:31;99135.41;;;12.07;100.00
59531;BME280;45349;48.692;8.186;2022-10-31T00:43:57;99129.88;;;12.10;100.00
59531;BME280;45349;48.692;8.186;2022-10-31T00:46:24;99125.91;;;12.06;100.00
59531;BME280;45349;48.692;8.186;2022-10-31T00:48:51;99125.38;;;12.03;100.00
59531;BME280;45349;48.692;8.186;2022-10-31T00:51:17;99127.00;;;12.04;100.00
59531;BME280;45349;48.692;8.186;2022-10-31T00:53:44;99122.22;;;11.99;100.00
59531;BME280;45349;48.692;8.186;2022-10-31T00:56:12;99126.75;;;11.97;100.00
59531;BME280;45349;48.692;8.186;2022-10-31T00:58:39;99125.94;;;11.96;100.00
59531;BME280;45349;48.692;8.186;2022-10-31T01:01:07;99112.91;;;11.87;100.00
59531;BME280;45349;48.692;8.186;2022-10-31T01:03:34;99112.00;;;11.78;100.00
59531;BME280;45349;48.692;8.186;2022-10-31T01:06:03;99120.00;;;11.76;100.00
59531;BME280;45349;48.692;8.186;2022-10-31T01:08:32;99120.69;;;11.78;100.00
59531;BME280;45349;48.692;8.186;2022-10-31T01:11:01;99116.41;;;11.77;100.00
59531;BME280;45349;48.692;8.186;2022-10-31T01:13:29;99113.50;;;11.80;100.00
59531;BME280;45349;48.692;8.186;2022-10-31T01:15:56;99118.19;;;11.77;100.00
59531;BME280;45349;48.692;8.186;2022-10-31T01:18:24;99113.50;;;11.80;100.00
59531;BME280;45349;48.692;8.186;2022-10-31T01:21:02;99114.59;;;11.78;100.00
59531;BME280;45349;48.692;8.186;2022-10-31T01:23:29;99117.81;;;11.72;100.00
59531;BME280;45349;48.692;8.186;2022-10-31T01:26:05;99111.78;;;11.71;100.00
59531;BME280;45349;48.692;8.186;2022-10-31T01:28:33;99110.69;;;11.64;100.00
59531;BME280;45349;48.692;8.186;2022-10-31T01:31:01;99117.56;;;11.65;100.00
59531;BME280;45349;48.692;8.186;2022-10-31T01:33:28;99124.97;;;11.70;100.00
59531;BME280;45349;48.692;8.186;2022-10-31T01:35:55;99121.69;;;11.67;100.00
59531;BME280;45349;48.692;8.186;2022-10-31T01:38:21;99114.50;;;11.70;100.00
59531;BME280;45349;48.692;8.186;2022-10-31T01:40:49;99120.34;;;11.63;100.00
59531;BME280;45349;48.692;8.186;2022-10-31T01:43:15;99116.91;;;11.63;100.00
59531;BME280;45349;48.692;8.186;2022-10-31T01:45:47;99124.06;;;11.61;100.00
59531;BME280;45349;48.692;8.186;2022-10-31T01:48:19;99125.25;;;11.66;100.00
59531;BME280;45349;48.692;8.186;2022-10-31T01:50:48;99126.25;;;11.65;100.00
59531;BME280;45349;48.692;8.186;2022-10-31T01:53:17;99121.63;;;11.59;100.00
59531;BME280;45349;48.692;8.186;2022-10-31T01:55:45;99119.97;;;11.58;100.00
59531;BME280;45349;48.692;8.186;2022-10-31T01:58:16;99117.19;;;11.60;100.00
59531;BME280;45349;48.692;8.186;2022-10-31T02:00:49;99118.78;;;11.71;100.00
59531;BME280;45349;48.692;8.186;2022-10-31T02:03:18;99116.59;;;11.66;100.00
59531;BME280;45349;48.692;8.186;2022-10-31T02:05:46;99107.88;;;11.57;100.00
59531;BME280;45349;48.692;8.186;2022-10-31T02:08:16;99107.47;;;11.52;100.00
59531;BME280;45349;48.692;8.186;2022-10-31T02:10:48;99107.47;;;11.52;100.00
59531;BME280;45349;48.692;8.186;2022-10-31T02:13:16;99108.28;;;11.52;100.00
59531;BME280;45349;48.692;8.186;2022-10-31T02:15:50;99105.25;;;11.57;100.00
59531;BME280;45349;48.692;8.186;2022-10-31T02:18:18;99095.38;;;11.51;100.00
59531;BME280;45349;48.692;8.186;2022-10-31T02:20:53;99097.00;;;11.52;100.00
59531;BME280;45349;48.692;8.186;2022-10-31T02:26:41;99094.41;;;11.52;100.00
59531;BME280;45349;48.692;8.186;2022-10-31T02:32:09;99080.19;;;11.55;100.00
59531;BME280;45349;48.692;8.186;2022-10-31T02:34:46;99077.75;;;11.53;100.00
59531;BME280;45349;48.692;8.186;2022-10-31T02:37:21;99082.09;;;11.62;100.00
59531;BME280;45349;48.692;8.186;2022-10-31T02:39:56;99079.78;;;11.59;100.00
59531;BME280;45349;48.692;8.186;2022-10-31T02:42:49;99080.34;;;11.53;100.00
59531;BME280;45349;48.692;8.186;2022-10-31T02:45:22;99079.22;;;11.56;100.00
59531;BME280;45349;48.692;8.186;2022-10-31T02:47:53;99079.31;;;11.64;100.00
59531;BME280;45349;48.692;8.186;2022-10-31T02:50:24;99077.22;;;11.67;100.00
59531;BME280;45349;48.692;8.186;2022-10-31T02:52:53;99071.94;;;11.59;100.00
59531;BME280;45349;48.692;8.186;2022-10-31T02:55:48;99069.31;;;11.59;100.00
59531;BME280;45349;48.692;8.186;2022-10-31T02:58:19;99074.94;;;11.64;100.00
59531;BME280;45349;48.692;8.186;2022-10-31T03:00:56;99077.28;;;11.58;100.00
59531;BME280;45349;48.692;8.186;2022-10-31T03:03:34;99068.78;;;11.56;100.00
59531;BME280;45349;48.692;8.186;2022-10-31T03:06:09;99075.44;;;11.50;100.00
59531;BME280;45349;48.692;8.186;2022-10-31T03:08:47;99078.31;;;11.47;100.00
59531;BME280;45349;48.692;8.186;2022-10-31T03:11:17;99079.97;;;11.48;100.00
59531;BME280;45349;48.692;8.186;2022-10-31T03:13:46;99072.31;;;11.36;100.00
59531;BME280;45349;48.692;8.186;2022-10-31T03:16:20;99078.25;;;11.29;100.00
59531;BME280;45349;48.692;8.186;2022-10-31T03:18:55;99073.72;;;11.31;100.00
59531;BME280;45349;48.692;8.186;2022-10-31T03:21:25;99079.50;;;11.25;100.00
59531;BME280;45349;48.692;8.186;2022-10-31T03:23:54;99069.91;;;11.15;100.00
59531;BME280;45349;48.692;8.186;2022-10-31T03:26:23;99078.34;;;11.09;100.00
59531;BME280;45349;48.692;8.186;2022-10-31T03:28:53;99075.47;;;11.02;100.00
59531;BME280;45349;48.692;8.186;2022-10-31T03:31:26;99074.56;;;10.93;100.00
59531;BME280;45349;48.692;8.186;2022-10-31T03:33:59;99082.09;;;10.87;100.00
59531;BME280;45349;48.692;8.186;2022-10-31T03:36:29;99071.69;;;10.77;100.00
59531;BME280;45349;48.692;8.186;2022-10-31T03:38:58;99075.69;;;10.71;100.00
59531;BME280;45349;48.692;8.186;2022-10-31T03:41:29;99065.94;;;10.63;100.00
59531;BME280;45349;48.692;8.186;2022-10-31T03:44:02;99067.03;;;10.61;100.00
59531;BME280;45349;48.692;8.186;2022-10-31T03:46:30;99056.22;;;10.56;100.00
59531;BME280;45349;48.692;8.186;2022-10-31T03:48:59;99060.59;;;10.55;100.00
59531;BME280;45349;48.692;8.186;2022-10-31T03:51:31;99067.34;;;10.48;100.00
59531;BME280;45349;48.692;8.186;2022-10-31T03:54:04;99061.44;;;10.46;100.00
59531;BME280;45349;48.692;8.186;2022-10-31T03:56:35;99058.44;;;10.51;100.00
59531;BME280;45349;48.692;8.186;2022-10-31T03:59:06;99056.91;;;10.58;100.00
59531;BME280;45349;48.692;8.186;2022-10-31T04:04:19;99053.75;;;10.54;100.00
59531;BME280;45349;48.692;8.186;2022-10-31T04:06:49;99052.22;;;10.61;100.00
59531;BME280;45349;48.692;8.186;2022-10-31T04:09:17;99056.75;;;10.59;100.00
59531;BME280;45349;48.692;8.186;2022-10-31T04:11:47;99061.28;;;10.57;100.00
59531;BME280;45349;48.692;8.186;2022-10-31T04:14:37;99058.97;;;10.54;100.00
59531;BME280;45349;48.692;8.186;2022-10-31T04:17:09;99051.56;;;10.50;100.00
59531;BME280;45349;48.692;8.186;2022-10-31T04:19:40;99056.34;;;10.54;100.00
59531;BME280;45349;48.692;8.186;2022-10-31T04:22:07;99059.50;;;10.48;100.00
59531;BME280;45349;48.692;8.186;2022-10-31T04:24:33;99056.63;;;10.51;100.00
59531;BME280;45349;48.692;8.186;2022-10-31T04:27:00;99057.19;;;10.55;100.00
59531;BME280;45349;48.692;8.186;2022-10-31T04:29:28;99055.25;;;10.47;100.00
59531;BME280;45349;48.692;8.186;2022-10-31T04:31:55;99053.50;;;10.47;100.00
59531;BME280;45349;48.692;8.186;2022-10-31T04:34:21;99055.13;;;10.48;100.00
59531;BME280;45349;48.692;8.186;2022-10-31T04:36:50;99056.38;;;10.44;100.00
59531;BME280;45349;48.692;8.186;2022-10-31T04:39:16;99057.03;;;10.37;100.00
59531;BME280;45349;48.692;8.186;2022-10-31T04:41:49;99052.63;;;10.27;100.00
59531;BME280;45349;48.692;8.186;2022-10-31T04:44:17;99056.47;;;10.23;100.00
59531;BME280;45349;48.692;8.186;2022-10-31T04:46:48;99050.59;;;10.11;100.00
59531;BME280;45349;48.692;8.186;2022-10-31T04:49:15;99058.53;;;10.10;100.00
59531;BME280;45349;48.692;8.186;2022-10-31T04:51:42;99056.63;;;10.12;100.00
59531;BME280;45349;48.692;8.186;2022-10-31T04:54:10;99050.19;;;10.06;100.00
59531;BME280;45349;48.692;8.186;2022-10-31T04:56:55;99048.13;;;10.00;100.00
59531;BME280;45349;48.692;8.186;2022-10-31T04:59:22;99048.53;;;10.05;100.00
59531;BME280;45349;48.692;8.186;2022-10-31T05:01:52;99045.22;;;10.03;100.00
59531;BME280;45349;48.692;8.186;2022-10-31T05:04:38;99041.13;;;10.00;100.00
59531;BME280;45349;48.692;8.186;2022-10-31T05:07:04;99053.06;;;9.93;100.00
59531;BME280;45349;48.692;8.186;2022-10-31T05:09:32;99048.13;;;9.90;100.00
59531;BME280;45349;48.692;8.186;2022-10-31T05:11:59;99050.72;;;9.90;100.00
59531;BME280;45349;48.692;8.186;2022-10-31T05:15:05;99049.88;;;9.89;100.00
59531;BME280;45349;48.692;8.186;2022-10-31T05:18:10;99053.72;;;9.85;100.00
59531;BME280;45349;48.692;8.186;2022-10-31T05:20:59;99053.47;;;9.79;100.00
59531;BME280;45349;48.692;8.186;2022-10-31T05:23:41;99055.91;;;9.80;100.00
59531;BME280;45349;48.692;8.186;2022-10-31T05:26:10;99052.50;;;9.80;100.00
59531;BME280;45349;48.692;8.186;2022-10-31T05:28:37;99049.75;;;9.81;100.00
59531;BME280;45349;48.692;8.186;2022-10-31T05:31:04;99046.59;;;9.78;100.00
59531;BME280;45349;48.692;8.186;2022-10-31T05:33:31;99044.09;;;9.76;100.00
59531;BME280;45349;48.692;8.186;2022-10-31T05:36:27;99040.13;;;9.72;100.00
59531;BME280;45349;48.692;8.186;2022-10-31T05:38:57;99031.06;;;9.76;100.00
59531;BME280;45349;48.692;8.186;2022-10-31T05:41:29;99024.63;;;9.70;100.00
59531;BME280;45349;48.692;8.186;2022-10-31T05:44:12;99027.78;;;9.74;100.00
59531;BME280;45349;48.692;8.186;2022-10-31T05:46:51;99023.66;;;9.81;100.00
59531;BME280;45349;48.692;8.186;2022-10-31T05:49:36;99019.28;;;9.82;100.00
59531;BME280;45349;48.692;8.186;2022-10-31T05:52:22;99020.09;;;9.82;100.00
59531;BME280;45349;48.692;8.186;2022-10-31T05:54:55;99021.63;;;9.95;100.00
59531;BME280;45349;48.692;8.186;2022-10-31T05:57:23;99020.25;;;9.90;100.00
59531;BME280;45349;48.692;8.186;2022-10-31T05:59:51;99026.16;;;9.93;100.00
59531;BME280;45349;48.692;8.186;2022-10-31T06:02:19;99027.94;;;10.02;100.00
59531;BME280;45349;48.692;8.186;2022-10-31T06:05:05;99020.94;;;10.02;100.00
59531;BME280;45349;48.692;8.186;2022-10-31T06:07:32;99024.38;;;10.03;100.00
59531;BME280;45349;48.692;8.186;2022-10-31T06:09:59;99030.28;;;10.05;100.00
59531;BME280;45349;48.692;8.186;2022-10-31T06:12:27;99027.22;;;10.10;100.00
59531;BME280;45349;48.692;8.186;2022-10-31T06:15:15;99026.84;;;10.14;100.00
59531;BME280;45349;48.692;8.186;2022-10-31T06:17:42;99029.84;;;10.19;100.00
59531;BME280;45349;48.692;8.186;2022-10-31T06:20:29;99030.53;;;10.22;100.00
59531;BME280;45349;48.692;8.186;2022-10-31T06:23:04;99028.63;;;10.24;100.00
59531;BME280;45349;48.692;8.186;2022-10-31T06:25:33;99036.84;;;10.29;100.00
59531;BME280;45349;48.692;8.186;2022-10-31T06:28:01;99034.66;;;10.34;100.00
59531;BME280;45349;48.692;8.186;2022-10-31T06:30:37;99036.47;;;10.43;100.00
59531;BME280;45349;48.692;8.186;2022-10-31T06:33:04;99040.44;;;10.47;100.00
59531;BME280;45349;48.692;8.186;2022-10-31T06:35:34;99040.69;;;10.54;100.00
59531;BME280;45349;48.692;8.186;2022-10-31T06:38:01;99037.78;;;10.57;100.00
59531;BME280;45349;48.692;8.186;2022-10-31T06:40:41;99029.41;;;10.63;100.00
59531;BME280;45349;48.692;8.186;2022-10-31T06:43:21;99031.56;;;10.68;100.00
59531;BME280;45349;48.692;8.186;2022-10-31T06:45:51;99033.78;;;10.73;100.00
59531;BME280;45349;48.692;8.186;2022-10-31T06:48:27;99029.63;;;10.80;100.00
59531;BME280;45349;48.692;8.186;2022-10-31T06:51:13;99030.03;;;10.85;100.00
59531;BME280;45349;48.692;8.186;2022-10-31T06:53:40;99037.44;;;10.90;100.00
59531;BME280;45349;48.692;8.186;2022-10-31T06:56:09;99029.03;;;10.96;100.00
59531;BME280;45349;48.692;8.186;2022-10-31T06:58:43;99027.78;;;11.00;100.00
59531;BME280;45349;48.692;8.186;2022-10-31T07:01:10;99032.41;;;11.06;100.00
59531;BME280;45349;48.692;8.186;2022-10-31T07:03:38;99031.56;;;11.16;100.00
59531;BME280;45349;48.692;8.186;2022-10-31T07:06:05;99026.56;;;11.22;100.00
59531;BME280;45349;48.692;8.186;2022-10-31T07:08:33;99026.66;;;11.31;100.00
59531;BME280;45349;48.692;8.186;2022-10-31T07:10:59;99026.63;;;11.41;100.00
59531;BME280;45349;48.692;8.186;2022-10-31T07:13:28;99033.88;;;11.47;100.00
59531;BME280;45349;48.692;8.186;2022-10-31T07:16:07;99042.78;;;11.54;100.00
59531;BME280;45349;48.692;8.186;2022-10-31T07:18:36;99035.16;;;11.61;100.00
59531;BME280;45349;48.692;8.186;2022-10-31T07:21:02;99038.16;;;11.66;100.00
59531;BME280;45349;48.692;8.186;2022-10-31T07:23:32;99044.81;;;11.78;100.00
59531;BME280;45349;48.692;8.186;2022-10-31T07:26:34;99042.13;;;11.88;100.00
59531;BME280;45349;48.692;8.186;2022-10-31T07:29:01;99046.63;;;11.96;100.00
59531;BME280;45349;48.692;8.186;2022-10-31T07:31:29;99052.94;;;12.03;100.00
59531;BME280;45349;48.692;8.186;2022-10-31T07:34:02;99062.53;;;12.13;100.00
59531;BME280;45349;48.692;8.186;2022-10-31T07:36:54;99063.22;;;12.23;100.00
59531;BME280;45349;48.692;8.186;2022-10-31T07:39:21;99063.47;;;12.30;100.00
59531;BME280;45349;48.692;8.186;2022-10-31T07:41:48;99069.75;;;12.37;100.00
59531;BME280;45349;48.692;8.186;2022-10-31T07:44:17;99056.72;;;12.45;100.00
59531;BME280;45349;48.692;8.186;2022-10-31T07:47:01;99063.81;;;12.53;100.00
59531;BME280;45349;48.692;8.186;2022-10-31T07:49:46;99065.38;;;12.64;100.00
59531;BME280;45349;48.692;8.186;2022-10-31T07:52:31;99064.41;;;12.73;100.00
59531;BME280;45349;48.692;8.186;2022-10-31T07:55:16;99065.13;;;12.83;100.00
59531;BME280;45349;48.692;8.186;2022-10-31T07:57:46;99059.28;;;12.90;100.00
59531;BME280;45349;48.692;8.186;2022-10-31T08:00:21;99058.97;;;12.93;100.00
59531;BME280;45349;48.692;8.186;2022-10-31T08:02:57;99064.75;;;12.96;100.00
59531;BME280;45349;48.692;8.186;2022-10-31T08:05:43;99060.22;;;13.07;100.00
59531;BME280;45349;48.692;8.186;2022-10-31T08:08:26;99059.78;;;13.20;100.00
59531;BME280;45349;48.692;8.186;2022-10-31T08:10:54;99058.97;;;13.27;100.00
59531;BME280;45349;48.692;8.186;2022-10-31T08:13:21;99054.28;;;13.39;100.00
59531;BME280;45349;48.692;8.186;2022-10-31T08:15:49;99066.81;;;13.54;100.00
59531;BME280;45349;48.692;8.186;2022-10-31T08:18:23;99066.03;;;13.70;100.00
59531;BME280;45349;48.692;8.186;2022-10-31T08:20:51;99068.03;;;13.84;99.91
59531;BME280;45349;48.692;8.186;2022-10-31T08:23:17;99065.25;;;13.94;98.00
59531;BME280;45349;48.692;8.186;2022-10-31T08:25:44;99070.03;;;13.99;97.33
59531;BME280;45349;48.692;8.186;2022-10-31T08:28:14;99065.59;;;14.08;96.43
59531;BME280;45349;48.692;8.186;2022-10-31T08:30:43;99067.25;;;14.17;97.05
59531;BME280;45349;48.692;8.186;2022-10-31T08:33:31;99077.09;;;14.23;92.00
59531;BME280;45349;48.692;8.186;2022-10-31T08:36:27;99078.09;;;14.14;92.49
59531;BME280;45349;48.692;8.186;2022-10-31T08:39:17;99079.72;;;14.15;92.68
59531;BME280;45349;48.692;8.186;2022-10-31T08:41:43;99071.69;;;14.16;91.96
59531;BME280;45349;48.692;8.186;2022-10-31T08:44:12;99070.53;;;14.02;91.55
59531;BME280;45349;48.692;8.186;2022-10-31T08:46:39;99072.03;;;14.13;90.98
59531;BME280;45349;48.692;8.186;2022-10-31T08:49:07;99073.47;;;14.08;90.97
59531;BME280;45349;48.692;8.186;2022-10-31T08:51:33;99069.38;;;14.05;91.95
59531;BME280;45349;48.692;8.186;2022-10-31T08:54:00;99066.06;;;13.86;93.47
59531;BME280;45349;48.692;8.186;2022-10-31T08:56:45;99070.69;;;14.01;93.40
59531;BME280;45349;48.692;8.186;2022-10-31T08:59:28;99068.22;;;14.08;92.02
59531;BME280;45349;48.692;8.186;2022-10-31T09:02:16;99064.47;;;14.10;91.22
59531;BME280;45349;48.692;8.186;2022-10-31T09:04:44;99058.25;;;14.11;91.20
59531;BME280;45349;48.692;8.186;2022-10-31T09:07:11;99058.06;;;14.21;91.96
59531;BME280;45349;48.692;8.186;2022-10-31T09:09:38;99055.59;;;14.36;91.18
59531;BME280;45349;48.692;8.186;2022-10-31T09:12:05;99049.53;;;14.44;91.28
59531;BME280;45349;48.692;8.186;2022-10-31T09:14:50;99050.84;;;14.56;90.34
59531;BME280;45349;48.692;8.186;2022-10-31T09:17:28;99042.63;;;14.68;89.05
59531;BME280;45349;48.692;8.186;2022-10-31T09:20:16;99051.19;;;14.70;89.66
59531;BME280;45349;48.692;8.186;2022-10-31T09:22:43;99045.06;;;14.78;89.85
59531;BME280;45349;48.692;8.186;2022-10-31T09:25:10;99044.59;;;14.82;88.62
59531;BME280;45349;48.692;8.186;2022-10-31T09:27:38;99046.03;;;14.93;88.61
59531;BME280;45349;48.692;8.186;2022-10-31T09:30:06;99037.63;;;14.98;87.61
59531;BME280;45349;48.692;8.186;2022-10-31T09:32:33;99034.84;;;14.99;87.28
59531;BME280;45349;48.692;8.186;2022-10-31T09:35:00;99038.94;;;15.02;87.13
59531;BME280;45349;48.692;8.186;2022-10-31T09:37:28;99035.78;;;15.15;87.47
59531;BME280;45349;48.692;8.186;2022-10-31T09:39:55;99032.81;;;15.18;86.78
59531;BME280;45349;48.692;8.186;2022-10-31T09:42:47;99027.88;;;15.15;89.33
59531;BME280;45349;48.692;8.186;2022-10-31T09:45:26;99020.47;;;15.18;87.83
59531;BME280;45349;48.692;8.186;2022-10-31T09:48:08;99024.53;;;15.29;86.40
59531;BME280;45349;48.692;8.186;2022-10-31T09:51:00;99028.63;;;15.32;87.31
59531;BME280;45349;48.692;8.186;2022-10-31T09:53:40;99019.63;;;15.26;85.79
59531;BME280;45349;48.692;8.186;2022-10-31T09:56:12;99021.16;;;15.12;85.08
59531;BME280;45349;48.692;8.186;2022-10-31T09:58:42;99024.00;;;15.02;85.63
59531;BME280;45349;48.692;8.186;2022-10-31T10:01:25;99018.38;;;15.05;87.00
59531;BME280;45349;48.692;8.186;2022-10-31T10:03:57;99016.75;;;15.04;88.07
59531;BME280;45349;48.692;8.186;2022-10-31T10:06:46;99007.81;;;15.22;87.42
59531;BME280;45349;48.692;8.186;2022-10-31T10:09:55;99013.78;;;15.39;87.49
59531;BME280;45349;48.692;8.186;2022-10-31T10:13:08;99006.03;;;15.46;86.46
59531;BME280;45349;48.692;8.186;2022-10-31T10:15:52;99008.44;;;15.56;86.52
59531;BME280;45349;48.692;8.186;2022-10-31T10:18:38;99007.81;;;15.77;87.27
59531;BME280;45349;48.692;8.186;2022-10-31T10:21:18;99010.16;;;15.95;86.80
59531;BME280;45349;48.692;8.186;2022-10-31T10:24:03;99007.59;;;16.10;83.31
59531;BME280;45349;48.692;8.186;2022-10-31T10:26:38;99011.94;;;16.03;82.51
59531;BME280;45349;48.692;8.186;2022-10-31T10:29:27;99002.69;;;15.84;82.88
59531;BME280;45349;48.692;8.186;2022-10-31T10:31:58;98999.28;;;15.98;83.96
59531;BME280;45349;48.692;8.186;2022-10-31T10:34:30;99008.13;;;16.05;83.54
59531;BME280;45349;48.692;8.186;2022-10-31T10:37:02;99003.75;;;15.98;83.77
59531;BME280;45349;48.692;8.186;2022-10-31T10:39:33;99002.56;;;16.00;83.60
59531;BME280;45349;48.692;8.186;2022-10-31T10:42:09;99000.00;;;15.92;83.59
59531;BME280;45349;48.692;8.186;2022-10-31T10:44:55;99000.38;;;15.89;83.45
59531;BME280;45349;48.692;8.186;2022-10-31T10:47:42;99000.47;;;15.96;83.71
59531;BME280;45349;48.692;8.186;2022-10-31T10:50:13;99000.63;;;15.94;83.41
59531;BME280;45349;48.692;8.186;2022-10-31T10:53:01;99002.28;;;15.95;85.70
59531;BME280;45349;48.692;8.186;2022-10-31T10:55:36;98995.66;;;15.99;84.54
59531;BME280;45349;48.692;8.186;2022-10-31T10:58:09;98992.09;;;15.92;83.65
59531;BME280;45349;48.692;8.186;2022-10-31T11:00:39;98985.63;;;16.18;81.94
59531;BME280;45349;48.692;8.186;2022-10-31T11:03:07;98979.44;;;16.11;83.04
59531;BME280;45349;48.692;8.186;2022-10-31T11:05:36;98971.03;;;16.15;83.60
59531;BME280;45349;48.692;8.186;2022-10-31T11:08:04;98971.31;;;16.20;85.46
59531;BME280;45349;48.692;8.186;2022-10-31T11:10:32;98970.16;;;16.38;85.49
59531;BME280;45349;48.692;8.186;2022-10-31T11:13:20;98965.59;;;16.62;83.63
59531;BME280;45349;48.692;8.186;2022-10-31T11:15:57;98978.06;;;16.68;83.07
59531;BME280;45349;48.692;8.186;2022-10-31T11:18:26;98985.06;;;16.61;82.92
59531;BME280;45349;48.692;8.186;2022-10-31T11:20:55;98983.97;;;16.55;81.11
59531;BME280;45349;48.692;8.186;2022-10-31T11:23:24;98987.41;;;16.41;83.50
59531;BME280;45349;48.692;8.186;2022-10-31T11:25:56;98994.75;;;16.30;83.20
59531;BME280;45349;48.692;8.186;2022-10-31T11:28:25;98980.78;;;16.45;82.43
59531;BME280;45349;48.692;8.186;2022-10-31T11:30:57;98970.25;;;16.06;83.88
59531;BME280;45349;48.692;8.186;2022-10-31T11:33:30;98957.06;;;16.30;83.95
59531;BME280;45349;48.692;8.186;2022-10-31T11:36:00;98951.78;;;16.30;82.18
59531;BME280;45349;48.692;8.186;2022-10-31T11:38:34;98945.06;;;16.27;83.95
59531;BME280;45349;48.692;8.186;2022-10-31T11:41:08;98957.22;;;16.28;85.04
59531;BME280;45349;48.692;8.186;2022-10-31T11:43:37;98965.13;;;16.13;84.91
59531;BME280;45349;48.692;8.186;2022-10-31T11:46:09;98957.94;;;16.22;84.74
59531;BME280;45349;48.692;8.186;2022-10-31T11:48:37;98952.44;;;16.32;84.06
59531;BME280;45349;48.692;8.186;2022-10-31T11:51:04;98942.63;;;16.41;83.32
59531;BME280;45349;48.692;8.186;2022-10-31T11:53:33;98943.16;;;16.36;82.93
59531;BME280;45349;48.692;8.186;2022-10-31T11:56:09;98928.38;;;16.35;82.02
59531;BME280;45349;48.692;8.186;2022-10-31T11:58:38;98936.63;;;16.47;82.34
59531;BME280;45349;48.692;8.186;2022-10-31T12:01:05;98935.63;;;16.33;81.54
59531;BME280;45349;48.692;8.186;2022-10-31T12:03:44;98928.34;;;16.20;82.50
59531;BME280;45349;48.692;8.186;2022-10-31T12:06:18;98916.88;;;16.13;83.58
59531;BME280;45349;48.692;8.186;2022-10-31T12:08:46;98898.16;;;16.07;84.65
59531;BME280;45349;48.692;8.186;2022-10-31T12:11:27;98896.81;;;16.12;84.75
59531;BME280;45349;48.692;8.186;2022-10-31T12:14:08;98891.63;;;16.03;83.39
59531;BME280;45349;48.692;8.186;2022-10-31T12:16:44;98890.53;;;15.98;85.10
59531;BME280;45349;48.692;8.186;2022-10-31T12:19:17;98894.97;;;15.97;87.27
59531;BME280;45349;48.692;8.186;2022-10-31T12:22:02;98888.91;;;16.12;86.77
59531;BME280;45349;48.692;8.186;2022-10-31T12:24:48;98870.66;;;16.25;85.44
59531;BME280;45349;48.692;8.186;2022-10-31T12:27:28;98869.22;;;16.37;85.89
59531;BME280;45349;48.692;8.186;2022-10-31T12:30:19;98875.53;;;16.73;84.82
59531;BME280;45349;48.692;8.186;2022-10-31T12:33:11;98875.19;;;17.13;82.37
59531;BME280;45349;48.692;8.186;2022-10-31T12:35:51;98886.75;;;17.55;80.42
59531;BME280;45349;48.692;8.186;2022-10-31T12:38:45;98878.19;;;17.53;77.45
59531;BME280;45349;48.692;8.186;2022-10-31T12:41:28;98864.56;;;17.50;77.61
59531;BME280;45349;48.692;8.186;2022-10-31T12:44:04;98837.66;;;17.61;76.63
59531;BME280;45349;48.692;8.186;2022-10-31T12:46:50;98830.44;;;17.48;76.90
59531;BME280;45349;48.692;8.186;2022-10-31T12:49:31;98828.16;;;17.38;77.04
59531;BME280;45349;48.692;8.186;2022-10-31T12:52:19;98822.75;;;17.25;77.92
59531;BME280;45349;48.692;8.186;2022-10-31T12:54:58;98806.06;;;17.18;77.07
59531;BME280;45349;48.692;8.186;2022-10-31T12:57:33;98799.78;;;17.19;77.47
59531;BME280;45349;48.692;8.186;2022-10-31T13:00:04;98799.31;;;17.37;79.27
59531;BME280;45349;48.692;8.186;2022-10-31T13:02:39;98813.75;;;17.41;80.30
59531;BME280;45349;48.692;8.186;2022-10-31T13:05:24;98827.63;;;17.78;76.61
59531;BME280;45349;48.692;8.186;2022-10-31T13:07:55;98818.78;;;17.64;79.25
59531;BME280;45349;48.692;8.186;2022-10-31T13:10:25;98830.91;;;17.80;78.10
59531;BME280;45349;48.692;8.186;2022-10-31T13:12:58;98822.63;;;17.62;78.26
59531;BME280;45349;48.692;8.186;2022-10-31T13:15:28;98812.44;;;17.30;79.50
59531;BME280;45349;48.692;8.186;2022-10-31T13:18:00;98817.09;;;17.06;82.57
59531;BME280;45349;48.692;8.186;2022-10-31T13:20:32;98808.25;;;16.77;82.82
59531;BME280;45349;48.692;8.186;2022-10-31T13:23:05;98807.69;;;16.60;84.14
59531;BME280;45349;48.692;8.186;2022-10-31T13:25:38;98809.09;;;16.41;86.15
59531;BME280;45349;48.692;8.186;2022-10-31T13:28:15;98813.09;;;16.37;85.37
59531;BME280;45349;48.692;8.186;2022-10-31T13:30:47;98813.72;;;16.24;87.03
59531;BME280;45349;48.692;8.186;2022-10-31T13:33:19;98828.06;;;16.06;87.44
59531;BME280;45349;48.692;8.186;2022-10-31T13:35:52;98826.53;;;15.97;87.41
59531;BME280;45349;48.692;8.186;2022-10-31T13:38:24;98824.53;;;15.99;87.56